sensor_id;sensor_type;location;lat;lon;timestamp;P1;durP1;ratioP1;P2;durP2;ratioP2
73515;SDS011;61763;51.416;5.442;2024-01-25T00:01:20;14.93;;;2.28;;
73515;SDS011;61763;51.416;5.442;2024-01-25T00:03:46;20.20;;;2.40;;
73515;SDS011;61763;51.416;5.442;2024-01-25T00:06:11;20.13;;;2.25;;
73515;SDS011;61763;51.416;5.442;2024-01-25T00:08:37;26.40;;;2.60;;
73515;SDS011;61763;51.416;5.442;2024-01-25T00:11:03;22.38;;;1.92;;
73515;SDS011;61763;51.416;5.442;2024-01-25T00:13:29;21.05;;;2.03;;
73515;SDS011;61763;51.416;5.442;2024-01-25T00:15:54;23.52;;;2.95;;
73515;SDS011;61763;51.416;5.442;2024-01-25T00:18:20;13.88;;;1.25;;
73515;SDS011;61763;51.416;5.442;2024-01-25T00:20:45;24.30;;;2.30;;
73515;SDS011;61763;51.416;5.442;2024-01-25T00:23:11;23.48;;;2.80;;
73515;SDS011;61763;51.416;5.442;2024-01-25T00:25:36;33.55;;;2.50;;
73515;SDS011;61763;51.416;5.442;2024-01-25T00:28:02;22.48;;;1.85;;
73515;SDS011;61763;51.416;5.442;2024-01-25T00:30:27;28.33;;;2.67;;
73515;SDS011;61763;51.416;5.442;2024-01-25T00:32:52;20.17;;;2.33;;
73515;SDS011;61763;51.416;5.442;2024-01-25T00:35:18;24.15;;;2.00;;
73515;SDS011;61763;51.416;5.442;2024-01-25T00:37:44;22.63;;;2.42;;
73515;SDS011;61763;51.416;5.442;2024-01-25T00:40:11;31.92;;;2.47;;
73515;SDS011;61763;51.416;5.442;2024-01-25T00:42:42;23.50;;;2.35;;
73515;SDS011;61763;51.416;5.442;2024-01-25T00:45:09;26.40;;;3.05;;
73515;SDS011;61763;51.416;5.442;2024-01-25T00:47:37;26.25;;;2.38;;
73515;SDS011;61763;51.416;5.442;2024-01-25T00:50:02;27.85;;;2.65;;
73515;SDS011;61763;51.416;5.442;2024-01-25T00:52:29;28.83;;;3.03;;
73515;SDS011;61763;51.416;5.442;2024-01-25T00:54:54;17.08;;;2.35;;
73515;SDS011;61763;51.416;5.442;2024-01-25T00:57:20;25.77;;;2.38;;
73515;SDS011;61763;51.416;5.442;2024-01-25T00:59:46;25.73;;;2.85;;
73515;SDS011;61763;51.416;5.442;2024-01-25T01:02:12;24.10;;;2.65;;
73515;SDS011;61763;51.416;5.442;2024-01-25T01:04:38;16.70;;;2.03;;
73515;SDS011;61763;51.416;5.442;2024-01-25T01:07:05;41.53;;;3.00;;
73515;SDS011;61763;51.416;5.442;2024-01-25T01:09:31;16.25;;;2.85;;
73515;SDS011;61763;51.416;5.442;2024-01-25T01:11:56;23.52;;;2.45;;
73515;SDS011;61763;51.416;5.442;2024-01-25T01:14:22;27.45;;;2.25;;
73515;SDS011;61763;51.416;5.442;2024-01-25T01:16:47;26.27;;;3.00;;
73515;SDS011;61763;51.416;5.442;2024-01-25T01:19:13;30.63;;;3.00;;
73515;SDS011;61763;51.416;5.442;2024-01-25T01:21:38;30.63;;;2.90;;
73515;SDS011;61763;51.416;5.442;2024-01-25T01:24:06;29.70;;;2.38;;
73515;SDS011;61763;51.416;5.442;2024-01-25T01:26:31;28.08;;;2.72;;
73515;SDS011;61763;51.416;5.442;2024-01-25T01:28:57;31.08;;;3.10;;
73515;SDS011;61763;51.416;5.442;2024-01-25T01:31:22;34.00;;;3.30;;
73515;SDS011;61763;51.416;5.442;2024-01-25T01:33:49;26.02;;;2.70;;
73515;SDS011;61763;51.416;5.442;2024-01-25T01:36:14;32.97;;;3.85;;
73515;SDS011;61763;51.416;5.442;2024-01-25T01:38:40;23.23;;;2.63;;
73515;SDS011;61763;51.416;5.442;2024-01-25T01:41:05;36.65;;;3.22;;
73515;SDS011;61763;51.416;5.442;2024-01-25T01:43:31;31.95;;;3.55;;
73515;SDS011;61763;51.416;5.442;2024-01-25T01:45:58;25.27;;;3.33;;
73515;SDS011;61763;51.416;5.442;2024-01-25T01:48:32;29.30;;;2.92;;
73515;SDS011;61763;51.416;5.442;2024-01-25T01:50:59;23.42;;;2.95;;
73515;SDS011;61763;51.416;5.442;2024-01-25T01:53:25;35.40;;;2.92;;
73515;SDS011;61763;51.416;5.442;2024-01-25T01:55:51;37.83;;;4.22;;
73515;SDS011;61763;51.416;5.442;2024-01-25T01:58:17;27.63;;;4.00;;
73515;SDS011;61763;51.416;5.442;2024-01-25T02:00:43;25.50;;;3.20;;
73515;SDS011;61763;51.416;5.442;2024-01-25T02:03:11;29.02;;;3.08;;
73515;SDS011;61763;51.416;5.442;2024-01-25T02:05:36;29.35;;;3.47;;
73515;SDS011;61763;51.416;5.442;2024-01-25T02:08:02;24.77;;;2.70;;
73515;SDS011;61763;51.416;5.442;2024-01-25T02:10:28;30.77;;;4.20;;
73515;SDS011;61763;51.416;5.442;2024-01-25T02:12:53;31.00;;;3.45;;
73515;SDS011;61763;51.416;5.442;2024-01-25T02:15:18;32.90;;;3.10;;
73515;SDS011;61763;51.416;5.442;2024-01-25T02:17:44;30.77;;;2.90;;
73515;SDS011;61763;51.416;5.442;2024-01-25T02:20:12;31.85;;;3.15;;
73515;SDS011;61763;51.416;5.442;2024-01-25T02:22:38;31.67;;;2.85;;
73515;SDS011;61763;51.416;5.442;2024-01-25T02:25:04;25.90;;;2.08;;
73515;SDS011;61763;51.416;5.442;2024-01-25T02:27:30;29.30;;;2.13;;
73515;SDS011;61763;51.416;5.442;2024-01-25T02:29:55;21.30;;;2.53;;
73515;SDS011;61763;51.416;5.442;2024-01-25T02:32:20;24.65;;;2.08;;
73515;SDS011;61763;51.416;5.442;2024-01-25T02:34:46;19.67;;;2.55;;
73515;SDS011;61763;51.416;5.442;2024-01-25T02:37:12;28.65;;;2.10;;
73515;SDS011;61763;51.416;5.442;2024-01-25T02:39:39;29.58;;;2.38;;
73515;SDS011;61763;51.416;5.442;2024-01-25T02:42:04;18.92;;;2.20;;
73515;SDS011;61763;51.416;5.442;2024-01-25T02:44:30;32.03;;;2.45;;
73515;SDS011;61763;51.416;5.442;2024-01-25T02:46:55;15.88;;;1.48;;
73515;SDS011;61763;51.416;5.442;2024-01-25T02:49:20;27.88;;;2.55;;
73515;SDS011;61763;51.416;5.442;2024-01-25T02:51:46;25.35;;;2.78;;
73515;SDS011;61763;51.416;5.442;2024-01-25T02:54:11;27.67;;;2.53;;
73515;SDS011;61763;51.416;5.442;2024-01-25T02:56:37;23.35;;;1.92;;
73515;SDS011;61763;51.416;5.442;2024-01-25T02:59:02;25.60;;;2.95;;
73515;SDS011;61763;51.416;5.442;2024-01-25T03:01:27;23.75;;;2.25;;
73515;SDS011;61763;51.416;5.442;2024-01-25T03:03:53;35.70;;;2.92;;
73515;SDS011;61763;51.416;5.442;2024-01-25T03:06:18;18.55;;;3.45;;
73515;SDS011;61763;51.416;5.442;2024-01-25T03:08:45;26.08;;;3.08;;
73515;SDS011;61763;51.416;5.442;2024-01-25T03:11:10;30.95;;;3.72;;
73515;SDS011;61763;51.416;5.442;2024-01-25T03:13:35;25.65;;;3.63;;
73515;SDS011;61763;51.416;5.442;2024-01-25T03:16:01;40.17;;;4.95;;
73515;SDS011;61763;51.416;5.442;2024-01-25T03:18:27;26.48;;;3.63;;
73515;SDS011;61763;51.416;5.442;2024-01-25T03:20:52;26.67;;;3.50;;
73515;SDS011;61763;51.416;5.442;2024-01-25T03:23:18;16.73;;;2.90;;
73515;SDS011;61763;51.416;5.442;2024-01-25T03:25:43;28.25;;;4.10;;
73515;SDS011;61763;51.416;5.442;2024-01-25T03:28:08;26.33;;;3.53;;
73515;SDS011;61763;51.416;5.442;2024-01-25T03:30:36;23.67;;;2.95;;
73515;SDS011;61763;51.416;5.442;2024-01-25T03:33:01;25.30;;;2.95;;
73515;SDS011;61763;51.416;5.442;2024-01-25T03:35:26;29.98;;;3.38;;
73515;SDS011;61763;51.416;5.442;2024-01-25T03:37:52;28.85;;;3.33;;
73515;SDS011;61763;51.416;5.442;2024-01-25T03:40:17;39.83;;;2.90;;
73515;SDS011;61763;51.416;5.442;2024-01-25T03:42:42;33.47;;;3.28;;
73515;SDS011;61763;51.416;5.442;2024-01-25T03:45:08;19.33;;;2.38;;
73515;SDS011;61763;51.416;5.442;2024-01-25T03:47:33;20.10;;;1.67;;
73515;SDS011;61763;51.416;5.442;2024-01-25T03:49:59;35.00;;;2.60;;
73515;SDS011;61763;51.416;5.442;2024-01-25T03:52:25;22.40;;;2.17;;
73515;SDS011;61763;51.416;5.442;2024-01-25T03:54:50;30.98;;;3.38;;
73515;SDS011;61763;51.416;5.442;2024-01-25T03:57:15;28.85;;;2.10;;
73515;SDS011;61763;51.416;5.442;2024-01-25T03:59:41;24.30;;;2.45;;
73515;SDS011;61763;51.416;5.442;2024-01-25T04:02:06;23.80;;;2.83;;
73515;SDS011;61763;51.416;5.442;2024-01-25T04:04:32;21.27;;;1.75;;
73515;SDS011;61763;51.416;5.442;2024-01-25T04:06:57;22.63;;;2.45;;
73515;SDS011;61763;51.416;5.442;2024-01-25T04:09:23;20.23;;;2.10;;
73515;SDS011;61763;51.416;5.442;2024-01-25T04:11:48;19.20;;;1.98;;
73515;SDS011;61763;51.416;5.442;2024-01-25T04:14:13;26.45;;;2.15;;
73515;SDS011;61763;51.416;5.442;2024-01-25T04:16:40;36.97;;;2.92;;
73515;SDS011;61763;51.416;5.442;2024-01-25T04:19:06;34.33;;;2.97;;
73515;SDS011;61763;51.416;5.442;2024-01-25T04:21:31;16.27;;;1.90;;
73515;SDS011;61763;51.416;5.442;2024-01-25T04:23:57;23.98;;;2.55;;
73515;SDS011;61763;51.416;5.442;2024-01-25T04:26:22;27.55;;;2.00;;
73515;SDS011;61763;51.416;5.442;2024-01-25T04:28:48;16.27;;;1.95;;
73515;SDS011;61763;51.416;5.442;2024-01-25T04:31:13;24.10;;;2.13;;
73515;SDS011;61763;51.416;5.442;2024-01-25T04:33:39;24.38;;;2.80;;
73515;SDS011;61763;51.416;5.442;2024-01-25T04:36:05;24.63;;;2.38;;
73515;SDS011;61763;51.416;5.442;2024-01-25T04:38:30;29.65;;;3.08;;
73515;SDS011;61763;51.416;5.442;2024-01-25T04:40:56;14.13;;;1.85;;
73515;SDS011;61763;51.416;5.442;2024-01-25T04:43:21;27.42;;;1.95;;
73515;SDS011;61763;51.416;5.442;2024-01-25T04:45:46;30.00;;;2.60;;
73515;SDS011;61763;51.416;5.442;2024-01-25T04:48:12;26.98;;;2.28;;
73515;SDS011;61763;51.416;5.442;2024-01-25T04:50:38;28.02;;;2.13;;
73515;SDS011;61763;51.416;5.442;2024-01-25T04:53:04;21.30;;;1.58;;
73515;SDS011;61763;51.416;5.442;2024-01-25T04:55:29;26.40;;;2.35;;
73515;SDS011;61763;51.416;5.442;2024-01-25T04:57:55;24.05;;;1.90;;
73515;SDS011;61763;51.416;5.442;2024-01-25T05:00:21;22.25;;;2.05;;
73515;SDS011;61763;51.416;5.442;2024-01-25T05:02:47;24.13;;;2.05;;
73515;SDS011;61763;51.416;5.442;2024-01-25T05:05:13;28.27;;;2.63;;
73515;SDS011;61763;51.416;5.442;2024-01-25T05:07:38;21.00;;;2.53;;
73515;SDS011;61763;51.416;5.442;2024-01-25T05:10:04;27.25;;;2.13;;
73515;SDS011;61763;51.416;5.442;2024-01-25T05:12:29;19.98;;;1.70;;
73515;SDS011;61763;51.416;5.442;2024-01-25T05:14:55;25.52;;;1.90;;
73515;SDS011;61763;51.416;5.442;2024-01-25T05:17:20;23.05;;;2.72;;
73515;SDS011;61763;51.416;5.442;2024-01-25T05:19:45;20.75;;;2.25;;
73515;SDS011;61763;51.416;5.442;2024-01-25T05:22:11;25.10;;;2.20;;
73515;SDS011;61763;51.416;5.442;2024-01-25T05:24:36;17.42;;;1.35;;
73515;SDS011;61763;51.416;5.442;2024-01-25T05:27:02;16.00;;;1.60;;
73515;SDS011;61763;51.416;5.442;2024-01-25T05:29:27;25.25;;;2.03;;
73515;SDS011;61763;51.416;5.442;2024-01-25T05:31:52;27.40;;;2.42;;
73515;SDS011;61763;51.416;5.442;2024-01-25T05:34:18;18.73;;;2.03;;
73515;SDS011;61763;51.416;5.442;2024-01-25T05:36:43;24.88;;;2.50;;
73515;SDS011;61763;51.416;5.442;2024-01-25T05:39:08;21.37;;;2.20;;
73515;SDS011;61763;51.416;5.442;2024-01-25T05:41:34;19.40;;;1.60;;
73515;SDS011;61763;51.416;5.442;2024-01-25T05:44:00;25.85;;;3.08;;
73515;SDS011;61763;51.416;5.442;2024-01-25T05:46:25;28.98;;;2.35;;
73515;SDS011;61763;51.416;5.442;2024-01-25T05:48:50;23.17;;;2.28;;
73515;SDS011;61763;51.416;5.442;2024-01-25T05:51:16;18.60;;;2.33;;
73515;SDS011;61763;51.416;5.442;2024-01-25T05:53:41;34.45;;;2.55;;
73515;SDS011;61763;51.416;5.442;2024-01-25T05:56:06;17.77;;;2.10;;
73515;SDS011;61763;51.416;5.442;2024-01-25T05:58:33;22.00;;;2.13;;
73515;SDS011;61763;51.416;5.442;2024-01-25T06:00:58;25.58;;;2.45;;
73515;SDS011;61763;51.416;5.442;2024-01-25T06:03:23;20.05;;;2.33;;
73515;SDS011;61763;51.416;5.442;2024-01-25T06:05:49;30.25;;;2.42;;
73515;SDS011;61763;51.416;5.442;2024-01-25T06:08:14;28.48;;;2.13;;
73515;SDS011;61763;51.416;5.442;2024-01-25T06:10:39;37.95;;;2.85;;
73515;SDS011;61763;51.416;5.442;2024-01-25T06:13:05;16.88;;;2.08;;
73515;SDS011;61763;51.416;5.442;2024-01-25T06:15:30;23.67;;;2.30;;
73515;SDS011;61763;51.416;5.442;2024-01-25T06:17:56;28.80;;;3.30;;
73515;SDS011;61763;51.416;5.442;2024-01-25T06:20:22;29.80;;;2.90;;
73515;SDS011;61763;51.416;5.442;2024-01-25T06:22:48;30.20;;;3.30;;
73515;SDS011;61763;51.416;5.442;2024-01-25T06:25:13;20.67;;;2.20;;
73515;SDS011;61763;51.416;5.442;2024-01-25T06:27:39;28.50;;;3.42;;
73515;SDS011;61763;51.416;5.442;2024-01-25T06:30:04;29.60;;;2.90;;
73515;SDS011;61763;51.416;5.442;2024-01-25T06:32:30;21.65;;;2.58;;
73515;SDS011;61763;51.416;5.442;2024-01-25T06:34:56;29.77;;;3.08;;
73515;SDS011;61763;51.416;5.442;2024-01-25T06:37:21;25.10;;;3.00;;
73515;SDS011;61763;51.416;5.442;2024-01-25T06:39:46;22.88;;;2.22;;
73515;SDS011;61763;51.416;5.442;2024-01-25T06:42:12;29.65;;;3.20;;
73515;SDS011;61763;51.416;5.442;2024-01-25T06:44:38;16.65;;;2.78;;
73515;SDS011;61763;51.416;5.442;2024-01-25T06:47:03;27.85;;;3.15;;
73515;SDS011;61763;51.416;5.442;2024-01-25T06:49:29;28.63;;;3.67;;
73515;SDS011;61763;51.416;5.442;2024-01-25T06:51:54;17.23;;;2.33;;
73515;SDS011;61763;51.416;5.442;2024-01-25T06:54:19;24.45;;;2.70;;
73515;SDS011;61763;51.416;5.442;2024-01-25T06:56:44;22.40;;;2.95;;
73515;SDS011;61763;51.416;5.442;2024-01-25T06:59:10;22.63;;;2.85;;
73515;SDS011;61763;51.416;5.442;2024-01-25T07:01:35;17.45;;;2.50;;
73515;SDS011;61763;51.416;5.442;2024-01-25T07:04:01;26.95;;;3.58;;
73515;SDS011;61763;51.416;5.442;2024-01-25T07:06:28;25.67;;;3.40;;
73515;SDS011;61763;51.416;5.442;2024-01-25T07:08:53;28.70;;;2.75;;
73515;SDS011;61763;51.416;5.442;2024-01-25T07:11:19;23.88;;;3.13;;
73515;SDS011;61763;51.416;5.442;2024-01-25T07:13:44;24.65;;;2.42;;
73515;SDS011;61763;51.416;5.442;2024-01-25T07:16:10;35.50;;;3.80;;
73515;SDS011;61763;51.416;5.442;2024-01-25T07:18:35;23.35;;;2.97;;
73515;SDS011;61763;51.416;5.442;2024-01-25T07:21:00;23.73;;;3.00;;
73515;SDS011;61763;51.416;5.442;2024-01-25T07:23:26;26.77;;;3.60;;
73515;SDS011;61763;51.416;5.442;2024-01-25T07:25:52;39.17;;;3.42;;
73515;SDS011;61763;51.416;5.442;2024-01-25T07:28:20;24.38;;;3.47;;
73515;SDS011;61763;51.416;5.442;2024-01-25T07:30:49;24.45;;;3.13;;
73515;SDS011;61763;51.416;5.442;2024-01-25T07:33:15;22.50;;;3.25;;
73515;SDS011;61763;51.416;5.442;2024-01-25T07:35:41;16.60;;;2.60;;
73515;SDS011;61763;51.416;5.442;2024-01-25T07:38:10;16.35;;;3.17;;
73515;SDS011;61763;51.416;5.442;2024-01-25T07:40:45;23.17;;;2.72;;
73515;SDS011;61763;51.416;5.442;2024-01-25T07:43:10;29.63;;;3.65;;
73515;SDS011;61763;51.416;5.442;2024-01-25T07:45:35;21.35;;;2.65;;
73515;SDS011;61763;51.416;5.442;2024-01-25T07:48:01;17.98;;;3.20;;
73515;SDS011;61763;51.416;5.442;2024-01-25T07:50:27;32.25;;;3.92;;
73515;SDS011;61763;51.416;5.442;2024-01-25T07:52:54;55.38;;;5.90;;
73515;SDS011;61763;51.416;5.442;2024-01-25T07:55:20;42.72;;;5.50;;
73515;SDS011;61763;51.416;5.442;2024-01-25T07:57:45;46.10;;;6.68;;
73515;SDS011;61763;51.416;5.442;2024-01-25T08:00:10;41.40;;;7.03;;
73515;SDS011;61763;51.416;5.442;2024-01-25T08:02:36;45.10;;;6.00;;
73515;SDS011;61763;51.416;5.442;2024-01-25T08:05:03;41.92;;;6.95;;
73515;SDS011;61763;51.416;5.442;2024-01-25T08:07:28;34.55;;;6.07;;
73515;SDS011;61763;51.416;5.442;2024-01-25T08:09:54;56.45;;;8.27;;
73515;SDS011;61763;51.416;5.442;2024-01-25T08:12:23;41.15;;;7.45;;
73515;SDS011;61763;51.416;5.442;2024-01-25T08:14:51;39.28;;;7.30;;
73515;SDS011;61763;51.416;5.442;2024-01-25T08:17:16;61.13;;;8.73;;
73515;SDS011;61763;51.416;5.442;2024-01-25T08:19:41;47.63;;;7.82;;
73515;SDS011;61763;51.416;5.442;2024-01-25T08:22:07;45.00;;;8.52;;
73515;SDS011;61763;51.416;5.442;2024-01-25T08:24:32;50.67;;;8.98;;
73515;SDS011;61763;51.416;5.442;2024-01-25T08:26:58;64.75;;;9.00;;
73515;SDS011;61763;51.416;5.442;2024-01-25T08:29:23;56.97;;;9.50;;
73515;SDS011;61763;51.416;5.442;2024-01-25T08:31:49;53.55;;;9.85;;
73515;SDS011;61763;51.416;5.442;2024-01-25T08:34:14;56.47;;;10.25;;
73515;SDS011;61763;51.416;5.442;2024-01-25T08:36:39;53.35;;;9.68;;
73515;SDS011;61763;51.416;5.442;2024-01-25T08:39:05;49.55;;;8.45;;
73515;SDS011;61763;51.416;5.442;2024-01-25T08:41:30;68.63;;;11.18;;
73515;SDS011;61763;51.416;5.442;2024-01-25T08:43:55;63.15;;;9.60;;
73515;SDS011;61763;51.416;5.442;2024-01-25T08:46:21;74.85;;;12.30;;
73515;SDS011;61763;51.416;5.442;2024-01-25T08:48:46;60.55;;;10.38;;
73515;SDS011;61763;51.416;5.442;2024-01-25T08:51:12;52.92;;;8.93;;
73515;SDS011;61763;51.416;5.442;2024-01-25T08:53:37;64.38;;;11.30;;
73515;SDS011;61763;51.416;5.442;2024-01-25T08:56:02;51.50;;;8.43;;
73515;SDS011;61763;51.416;5.442;2024-01-25T08:58:29;60.63;;;10.27;;
73515;SDS011;61763;51.416;5.442;2024-01-25T09:00:55;67.85;;;11.18;;
73515;SDS011;61763;51.416;5.442;2024-01-25T09:03:20;44.45;;;9.90;;
73515;SDS011;61763;51.416;5.442;2024-01-25T09:05:47;48.50;;;9.73;;
73515;SDS011;61763;51.416;5.442;2024-01-25T09:08:14;44.65;;;9.88;;
73515;SDS011;61763;51.416;5.442;2024-01-25T09:10:40;51.00;;;9.75;;
73515;SDS011;61763;51.416;5.442;2024-01-25T09:13:07;52.28;;;9.75;;
73515;SDS011;61763;51.416;5.442;2024-01-25T09:15:33;47.40;;;9.93;;
73515;SDS011;61763;51.416;5.442;2024-01-25T09:17:58;52.40;;;9.40;;
73515;SDS011;61763;51.416;5.442;2024-01-25T09:20:23;56.85;;;10.20;;
73515;SDS011;61763;51.416;5.442;2024-01-25T09:22:49;54.88;;;9.90;;
73515;SDS011;61763;51.416;5.442;2024-01-25T09:25:14;51.22;;;10.63;;
73515;SDS011;61763;51.416;5.442;2024-01-25T09:27:39;47.85;;;10.27;;
73515;SDS011;61763;51.416;5.442;2024-01-25T09:30:05;52.38;;;10.43;;
73515;SDS011;61763;51.416;5.442;2024-01-25T09:32:31;45.78;;;9.65;;
73515;SDS011;61763;51.416;5.442;2024-01-25T09:34:56;36.90;;;9.50;;
73515;SDS011;61763;51.416;5.442;2024-01-25T09:37:21;50.28;;;9.48;;
73515;SDS011;61763;51.416;5.442;2024-01-25T09:39:49;34.30;;;9.15;;
73515;SDS011;61763;51.416;5.442;2024-01-25T09:42:18;41.75;;;9.40;;
73515;SDS011;61763;51.416;5.442;2024-01-25T09:44:44;44.08;;;7.93;;
73515;SDS011;61763;51.416;5.442;2024-01-25T09:47:10;38.22;;;8.68;;
73515;SDS011;61763;51.416;5.442;2024-01-25T09:49:36;35.28;;;7.70;;
73515;SDS011;61763;51.416;5.442;2024-01-25T09:52:02;41.13;;;9.35;;
73515;SDS011;61763;51.416;5.442;2024-01-25T09:54:30;36.25;;;8.25;;
73515;SDS011;61763;51.416;5.442;2024-01-25T09:57:00;30.52;;;8.90;;
73515;SDS011;61763;51.416;5.442;2024-01-25T09:59:33;40.80;;;10.60;;
73515;SDS011;61763;51.416;5.442;2024-01-25T10:01:59;42.17;;;9.85;;
73515;SDS011;61763;51.416;5.442;2024-01-25T10:04:26;36.92;;;9.63;;
73515;SDS011;61763;51.416;5.442;2024-01-25T10:06:55;40.42;;;10.60;;
73515;SDS011;61763;51.416;5.442;2024-01-25T10:09:21;39.05;;;10.10;;
73515;SDS011;61763;51.416;5.442;2024-01-25T10:11:47;47.17;;;11.27;;
73515;SDS011;61763;51.416;5.442;2024-01-25T10:14:13;48.50;;;10.75;;
73515;SDS011;61763;51.416;5.442;2024-01-25T10:16:38;39.67;;;10.40;;
73515;SDS011;61763;51.416;5.442;2024-01-25T10:19:06;46.38;;;11.70;;
73515;SDS011;61763;51.416;5.442;2024-01-25T10:21:32;50.35;;;11.63;;
73515;SDS011;61763;51.416;5.442;2024-01-25T10:24:00;46.90;;;12.27;;
73515;SDS011;61763;51.416;5.442;2024-01-25T10:26:26;49.08;;;10.90;;
73515;SDS011;61763;51.416;5.442;2024-01-25T10:28:53;47.60;;;11.57;;
73515;SDS011;61763;51.416;5.442;2024-01-25T10:31:19;37.95;;;11.70;;
73515;SDS011;61763;51.416;5.442;2024-01-25T10:33:44;40.92;;;10.43;;
73515;SDS011;61763;51.416;5.442;2024-01-25T10:36:11;41.80;;;9.45;;
73515;SDS011;61763;51.416;5.442;2024-01-25T10:38:37;37.28;;;10.52;;
73515;SDS011;61763;51.416;5.442;2024-01-25T10:41:03;36.50;;;10.00;;
73515;SDS011;61763;51.416;5.442;2024-01-25T10:43:30;39.90;;;10.02;;
73515;SDS011;61763;51.416;5.442;2024-01-25T10:45:56;32.97;;;8.10;;
73515;SDS011;61763;51.416;5.442;2024-01-25T10:48:23;35.80;;;8.70;;
73515;SDS011;61763;51.416;5.442;2024-01-25T10:50:49;35.85;;;8.77;;
73515;SDS011;61763;51.416;5.442;2024-01-25T10:53:15;31.05;;;8.68;;
73515;SDS011;61763;51.416;5.442;2024-01-25T10:55:42;38.78;;;8.93;;
73515;SDS011;61763;51.416;5.442;2024-01-25T10:58:07;34.30;;;8.18;;
73515;SDS011;61763;51.416;5.442;2024-01-25T11:00:33;30.17;;;8.50;;
73515;SDS011;61763;51.416;5.442;2024-01-25T11:03:00;33.80;;;7.78;;
73515;SDS011;61763;51.416;5.442;2024-01-25T11:05:26;37.00;;;7.68;;
73515;SDS011;61763;51.416;5.442;2024-01-25T11:07:53;31.77;;;6.72;;
73515;SDS011;61763;51.416;5.442;2024-01-25T11:10:22;31.45;;;6.03;;
73515;SDS011;61763;51.416;5.442;2024-01-25T11:15:23;35.28;;;7.22;;
73515;SDS011;61763;51.416;5.442;2024-01-25T11:17:55;36.38;;;6.53;;
73515;SDS011;61763;51.416;5.442;2024-01-25T11:20:21;27.33;;;6.20;;
73515;SDS011;61763;51.416;5.442;2024-01-25T11:23:03;29.70;;;6.40;;
73515;SDS011;61763;51.416;5.442;2024-01-25T11:25:34;35.83;;;8.00;;
73515;SDS011;61763;51.416;5.442;2024-01-25T11:28:01;35.20;;;8.07;;
73515;SDS011;61763;51.416;5.442;2024-01-25T11:30:28;29.35;;;8.18;;
73515;SDS011;61763;51.416;5.442;2024-01-25T11:32:55;28.08;;;8.63;;
73515;SDS011;61763;51.416;5.442;2024-01-25T11:35:21;25.90;;;7.80;;
73515;SDS011;61763;51.416;5.442;2024-01-25T11:37:47;34.03;;;7.70;;
73515;SDS011;61763;51.416;5.442;2024-01-25T11:40:13;28.70;;;8.27;;
73515;SDS011;61763;51.416;5.442;2024-01-25T11:42:41;27.10;;;7.80;;
73515;SDS011;61763;51.416;5.442;2024-01-25T11:45:08;29.45;;;7.78;;
73515;SDS011;61763;51.416;5.442;2024-01-25T11:47:36;23.63;;;7.00;;
73515;SDS011;61763;51.416;5.442;2024-01-25T11:50:02;23.20;;;7.38;;
73515;SDS011;61763;51.416;5.442;2024-01-25T11:52:28;29.05;;;6.97;;
73515;SDS011;61763;51.416;5.442;2024-01-25T11:54:54;21.83;;;6.05;;
73515;SDS011;61763;51.416;5.442;2024-01-25T11:57:19;21.52;;;6.00;;
73515;SDS011;61763;51.416;5.442;2024-01-25T11:59:45;21.67;;;5.30;;
73515;SDS011;61763;51.416;5.442;2024-01-25T12:02:13;24.15;;;6.22;;
73515;SDS011;61763;51.416;5.442;2024-01-25T12:04:39;23.17;;;5.93;;
73515;SDS011;61763;51.416;5.442;2024-01-25T12:07:05;16.98;;;6.05;;
73515;SDS011;61763;51.416;5.442;2024-01-25T12:09:30;26.30;;;6.20;;
73515;SDS011;61763;51.416;5.442;2024-01-25T12:11:56;21.50;;;5.82;;
73515;SDS011;61763;51.416;5.442;2024-01-25T12:14:23;23.38;;;5.03;;
73515;SDS011;61763;51.416;5.442;2024-01-25T12:16:49;17.27;;;4.65;;
73515;SDS011;61763;51.416;5.442;2024-01-25T12:19:15;19.02;;;5.82;;
73515;SDS011;61763;51.416;5.442;2024-01-25T12:21:43;27.42;;;6.45;;
73515;SDS011;61763;51.416;5.442;2024-01-25T12:24:09;21.65;;;4.75;;
73515;SDS011;61763;51.416;5.442;2024-01-25T12:26:35;18.80;;;5.00;;
73515;SDS011;61763;51.416;5.442;2024-01-25T12:29:01;24.83;;;5.47;;
73515;SDS011;61763;51.416;5.442;2024-01-25T12:31:26;26.52;;;6.10;;
73515;SDS011;61763;51.416;5.442;2024-01-25T12:33:51;19.58;;;4.78;;
73515;SDS011;61763;51.416;5.442;2024-01-25T12:36:17;22.98;;;4.97;;
73515;SDS011;61763;51.416;5.442;2024-01-25T12:38:42;24.40;;;5.95;;
73515;SDS011;61763;51.416;5.442;2024-01-25T12:41:07;27.08;;;6.20;;
73515;SDS011;61763;51.416;5.442;2024-01-25T12:43:33;27.23;;;6.88;;
73515;SDS011;61763;51.416;5.442;2024-01-25T12:45:58;14.52;;;5.05;;
73515;SDS011;61763;51.416;5.442;2024-01-25T12:48:24;21.25;;;6.07;;
73515;SDS011;61763;51.416;5.442;2024-01-25T12:50:49;22.58;;;5.75;;
73515;SDS011;61763;51.416;5.442;2024-01-25T12:53:15;30.33;;;5.93;;
73515;SDS011;61763;51.416;5.442;2024-01-25T12:55:40;23.65;;;5.28;;
73515;SDS011;61763;51.416;5.442;2024-01-25T12:58:06;23.73;;;5.80;;
73515;SDS011;61763;51.416;5.442;2024-01-25T13:00:31;24.45;;;5.70;;
73515;SDS011;61763;51.416;5.442;2024-01-25T13:02:58;28.42;;;6.88;;
73515;SDS011;61763;51.416;5.442;2024-01-25T13:05:23;22.23;;;5.10;;
73515;SDS011;61763;51.416;5.442;2024-01-25T13:07:49;24.95;;;6.03;;
73515;SDS011;61763;51.416;5.442;2024-01-25T13:10:14;30.00;;;6.43;;
73515;SDS011;61763;51.416;5.442;2024-01-25T13:12:40;27.27;;;6.82;;
73515;SDS011;61763;51.416;5.442;2024-01-25T13:15:06;24.95;;;5.95;;
73515;SDS011;61763;51.416;5.442;2024-01-25T13:17:35;23.15;;;6.50;;
73515;SDS011;61763;51.416;5.442;2024-01-25T13:20:01;24.15;;;6.68;;
73515;SDS011;61763;51.416;5.442;2024-01-25T13:22:28;25.20;;;7.13;;
73515;SDS011;61763;51.416;5.442;2024-01-25T13:24:55;19.80;;;6.47;;
73515;SDS011;61763;51.416;5.442;2024-01-25T13:27:20;28.92;;;6.88;;
73515;SDS011;61763;51.416;5.442;2024-01-25T13:29:45;16.80;;;5.00;;
73515;SDS011;61763;51.416;5.442;2024-01-25T13:32:11;31.83;;;8.07;;
73515;SDS011;61763;51.416;5.442;2024-01-25T13:34:36;27.55;;;7.68;;
73515;SDS011;61763;51.416;5.442;2024-01-25T13:37:02;30.95;;;7.93;;
73515;SDS011;61763;51.416;5.442;2024-01-25T13:39:27;33.10;;;7.28;;
73515;SDS011;61763;51.416;5.442;2024-01-25T13:41:53;29.17;;;8.23;;
73515;SDS011;61763;51.416;5.442;2024-01-25T13:44:19;26.30;;;6.75;;
73515;SDS011;61763;51.416;5.442;2024-01-25T13:46:44;32.83;;;8.73;;
73515;SDS011;61763;51.416;5.442;2024-01-25T13:49:10;26.63;;;7.38;;
73515;SDS011;61763;51.416;5.442;2024-01-25T13:51:35;41.47;;;7.82;;
73515;SDS011;61763;51.416;5.442;2024-01-25T13:54:01;34.15;;;7.82;;
73515;SDS011;61763;51.416;5.442;2024-01-25T13:56:26;30.23;;;9.07;;
73515;SDS011;61763;51.416;5.442;2024-01-25T13:58:51;33.95;;;8.13;;
73515;SDS011;61763;51.416;5.442;2024-01-25T14:01:17;25.60;;;6.13;;
73515;SDS011;61763;51.416;5.442;2024-01-25T14:03:42;32.38;;;7.53;;
73515;SDS011;61763;51.416;5.442;2024-01-25T14:06:08;33.90;;;8.32;;
73515;SDS011;61763;51.416;5.442;2024-01-25T14:08:35;32.30;;;7.50;;
73515;SDS011;61763;51.416;5.442;2024-01-25T14:11:01;30.20;;;7.45;;
73515;SDS011;61763;51.416;5.442;2024-01-25T14:13:27;30.73;;;7.22;;
73515;SDS011;61763;51.416;5.442;2024-01-25T14:15:52;29.75;;;7.50;;
73515;SDS011;61763;51.416;5.442;2024-01-25T14:18:17;31.33;;;7.60;;
73515;SDS011;61763;51.416;5.442;2024-01-25T14:20:43;33.33;;;8.55;;
73515;SDS011;61763;51.416;5.442;2024-01-25T14:23:08;32.22;;;7.82;;
73515;SDS011;61763;51.416;5.442;2024-01-25T14:25:33;25.63;;;7.28;;
73515;SDS011;61763;51.416;5.442;2024-01-25T14:27:59;35.10;;;8.05;;